Flight Track Log - Related Links

Times and Time Zones

All times are in EDT time to prevent confusion due to time zone crossing. See the N51EM flight status page for this flight to view local times or setup timezone preferences in your user account.

Time Position Orientation Groundspeed Altitude Reporting Facility
EDT Latitude Longitude Course Direction KTS km/h feet Rate Location/Type
Wed 15:35:16 40.5989 -75.5350 301° West 265 491 3,700  Level New York Center
Wed 15:36:16 40.6314 -75.6058 301° West 214 396 7,400 2,750 Climbing New York Center
Wed 15:37:16 40.7083 -75.6056 360° North 190 352 9,200 1,750 Climbing New York Center
Wed 15:38:16 40.7903 -75.5922 North 250 463 10,900 1,500 Climbing New York Center
Wed 15:39:16 40.8742 -75.5764 North 316 586 12,200 2,200 Climbing New York Center
Wed 15:40:16 40.9772 -75.5561 North 333 616 15,300 2,350 Climbing New York Center
Wed 15:41:16 41.0633 -75.5400 North 333 616 16,900 800 Climbing New York Center
Wed 15:42:16 41.1578 -75.5192 North 338 626 16,900 1,333 Level New York Center
Wed 15:44:16 41.3764 -75.4711 North 439 813 20,900 1,467 Climbing New York Center
Wed 15:45:16 41.4897 -75.4458 North 428 793 21,300 1,200 Climbing New York Center
Wed 15:46:16 41.5819 -75.3772 29° Northeast 389 721 23,300 1,778 Climbing New York Center
Wed 15:48:25 41.7931 -75.3472 North 387 716 26,900 1,875 Climbing Boston Center
Wed 15:49:28 41.9172 -75.3336 North 377 698 29,300 1,707 Climbing Boston Center
Wed 15:50:28 42.0167 -75.3236 North 362 671 30,400 878 Climbing Boston Center
Wed 15:51:31 42.1042 -75.2311 38° Northeast 423 784 31,100 629 Climbing Boston Center
Wed 15:52:32 42.1628 -75.1064 58° Northeast 433 801 31,700 639 Climbing Boston Center
Wed 15:53:33 42.2403 -74.9339 59° Northeast 446 826 32,400 639 Climbing Boston Center
Wed 15:54:34 42.3072 -74.7872 58° Northeast 463 858 33,000 590 Climbing Boston Center
Wed 15:55:35 42.3769 -74.6383 58° Northeast 501 929 33,600 532 Climbing Boston Center
Wed 15:56:38 42.4447 -74.4831 59° Northeast 509 943 34,100 537 Climbing Boston Center
Wed 15:57:38 42.5133 -74.3272 59° Northeast 492 911 34,700 595 Climbing Boston Center
Wed 15:58:39 42.5856 -74.1692 58° Northeast 490 908 35,300 528 Climbing Boston Center
Wed 15:59:43 42.6569 -74.0081 59° Northeast 495 917 35,800 532 Climbing Boston Center
Wed 16:00:43 42.7275 -73.8489 59° Northeast 493 912 36,400 550 Climbing Boston Center
Wed 16:01:43 42.7986 -73.6922 58° Northeast 488 904 36,900 545 Climbing Boston Center
Wed 16:02:44 42.8700 -73.5358 58° Northeast 485 898 37,500 48 Climbing Boston Center
Wed 16:03:48 42.9558 -73.3469 58° Northeast 484 896 37,000 -912 Descending Boston Center
Wed 16:04:49 43.0322 -73.1817 58° Northeast 500 925 35,600 -934 Descending Boston Center
Wed 16:05:50 43.1117 -73.0028 59° Northeast 534 990 35,100 -248 Descending Boston Center
Wed 16:06:50 43.1908 -72.8294 58° Northeast 537 995 35,100 -50 Level Boston Center
Wed 16:07:51 43.2653 -72.6578 59° Northeast 529 980 35,000 -48 Descending Boston Center
Wed 16:08:55 43.3397 -72.4967 58° Northeast 509 943 35,000  Level Boston Center
Wed 16:09:55 43.4094 -72.3342 59° Northeast 499 924 35,000  Level Boston Center
Wed 16:10:57 43.4789 -72.1758 59° Northeast 488 904 35,000  Level Boston Center
Wed 16:11:57 43.5461 -72.0233 59° Northeast 474 877 35,000  Level Boston Center
Wed 16:13:01 43.6183 -71.8900 53° Northeast 456 845 35,000  Level Boston Center
Wed 16:14:02 43.7131 -71.9372 340° North 338 626 35,000  Level Boston Center
Wed 16:15:02 43.7119 -72.0342 269° West 263 488 35,000 -341 Level Boston Center
Wed 16:16:05 43.6739 -72.1242 240° Southwest 287 531 34,300 -726 Descending Boston Center
Wed 16:17:06 43.6244 -72.2144 233° Southwest 297 550 33,500 -836 Descending Boston Center
Wed 16:18:07 43.5739 -72.3083 233° Southwest 303 562 32,600 -1,190 Descending Boston Center
Wed 16:19:07 43.5225 -72.4033 233° Southwest 309 573 31,100 -1,339 Descending Boston Center
Wed 16:20:08 43.4692 -72.5028 234° Southwest 322 597 29,900 -1,143 Descending Boston Center
Wed 16:21:13 43.4161 -72.6006 233° Southwest 321 594 28,700 -1,296 Descending Boston Center
Wed 16:22:13 43.3533 -72.7150 233° Southwest 317 587 27,200 -1,388 Descending Boston Center
Wed 16:23:14 43.3003 -72.8119 233° Southwest 318 589 25,900 -1,289 Descending Boston Center
Wed 16:24:14 43.2469 -72.9089 233° Southwest 319 591 24,600 -919 Descending Boston Center
Wed 16:25:18 43.1908 -73.0125 233° Southwest 319 591 24,000 -425 Descending Boston Center
Wed 16:26:21 43.1436 -73.0992 233° Southwest 313 579 23,700 -645 Descending Boston Center
Wed 16:27:19 43.0906 -73.1936 232° Southwest 314 581 22,700 -992 Descending Boston Center
Wed 16:28:22 43.0344 -73.2936 233° Southwest 328 607 21,700 -1,065 Descending Boston Center
Wed 16:29:23 42.9436 -73.3758 214° Southwest 344 637 20,500 -1,180 Descending Boston Center
Wed 16:30:24 42.8550 -73.4133 197° South 336 623 19,300 -1,339 Descending Boston Center
Wed 16:31:24 42.7606 -73.4564 199° South 335 621 17,800 -1,317 Descending Boston Center
Wed 16:32:27 42.6742 -73.4942 198° South 327 605 16,600 -1,113 Descending Boston Center
Wed 16:33:28 42.5881 -73.5300 197° South 326 604 15,500 -1,140 Descending Boston Center
Wed 16:34:28 42.4956 -73.5675 197° South 321 594 14,300 -1,140 Descending Boston Center
Wed 16:35:29 42.4103 -73.6017 196° South 320 592 13,200 -1,104 Descending Boston Center
Wed 16:36:33 42.3222 -73.6381 197° South 325 602 12,000 -1,104 Descending Boston Center
Wed 16:37:34 42.2350 -73.6744 197° South 328 607 10,900 -793 Descending Boston Center
Wed 16:38:34 42.1411 -73.7122 197° South 330 612 10,400 -1,122 Descending Boston Center
Wed 16:39:37 42.0500 -73.7511 198° South 344 637 8,600 -1,770 Descending Boston Center
Wed 16:40:36 41.9664 -73.7847 197° South 311 576 6,800 -1,884 Descending Boston Center
Wed 16:41:38 41.8897 -73.8172 198° South 269 499 4,800 -964 Descending Boston Center
Wed 16:43:49 41.7500 -73.8167 180° South 228 422 3,700 -565 Descending New York TRACON
Wed 16:44:49 41.6833 -73.8000 169° South 231 428 3,000 -350 Descending New York TRACON
Wed 16:45:49 41.6167 -73.8000 180° South 220 407 3,000  Level New York TRACON
Wed 16:46:49 41.5667 -73.8167 194° South 225 417 3,000 -200 Level New York TRACON
Wed 16:47:49 41.5500 -73.8833 252° West 196 364 2,600 -300 Descending New York TRACON
Wed 16:48:49 41.5333 -73.9500 252° West 194 359 2,400 -450 Descending New York TRACON
Wed 16:49:49 41.5167 -74.0167 252° West 194 359 1,700 -750 Descending New York TRACON
Wed 16:50:49 41.5167 -74.0667 270° West 134 248 900 -800 Descending New York TRACON
Wed 16:52:00 41.5000 -74.1000 254° West  Level FlightAware Approximate
Wed 16:59:00 41.8017 -73.3709 254° West  Level Estimated
Wed 17:00:00 41.8444 -73.2662 254° West  Level Estimated
Wed 17:01:00 41.8870 -73.1613 254° West  Level Estimated
Wed 17:02:00 41.9295 -73.0564 254° West  Level Estimated
Wed 17:03:00 41.9720 -72.9512 254° West  Level Estimated
Wed 17:04:00 42.0143 -72.8460 254° West  Level Estimated
Wed 17:05:00 42.0565 -72.7405 254° West  Level Estimated
Wed 17:06:00 42.0987 -72.6350 254° West  Level Estimated
Wed 17:07:00 42.1407 -72.5293 254° West  Level Estimated

Login

Don't have an account? Register now (free) for customized features, flight alerts, and more!